Time;durP1;ratioP1;P1;durP2;ratioP2;P2;SDS_P1;SDS_P2;PMS_P1;PMS_P2;Temp;Humidity;BMP_temperature;BMP_pressure;BME280_temperature;BME280_humidity;BME280_pressure;Samples;Min_cycle;Max_cycle;Signal;HPM_P1;HPM_P2
2023/03/02 00:00:56;;;;;;;;;;;;;;;16.60;46.67;101547.72;4997986;28;1906;-54
2023/03/02 00:03:22;;;;;;;;;;;;;;;16.17;46.70;101541.09;4981598;28;1216;-55
2023/03/02 00:05:47;;;;;;;;;;;;;;;17.10;45.79;101527.47;4998875;28;1061;-56
2023/03/02 00:08:14;;;;;;;;;;;;;;;16.31;47.03;101525.94;4999180;28;1081;-56
2023/03/02 00:10:39;;;;;;;;;;;;;;;17.55;45.33;101535.59;4998760;28;1016;-56
2023/03/02 00:13:05;;;;;;;;;;;;;;;17.20;45.66;101525.94;4998526;28;1241;-55
2023/03/02 00:15:31;;;;;;;;;;;;;;;16.54;46.43;101526.81;4999461;28;1067;-56
2023/03/02 00:17:56;;;;;;;;;;;;;;;18.00;44.43;101526.06;4998784;28;900;-55
2023/03/02 00:20:22;;;;;;;;;;;;;;;16.84;46.40;101509.03;4998311;28;1918;-55
2023/03/02 00:22:48;;;;;;;;;;;;;;;16.41;46.29;101515.09;4998623;28;1188;-55
2023/03/02 00:25:13;;;;;;;;;;;;;;;16.14;46.19;101505.94;4998431;28;1084;-55
2023/03/02 00:27:39;;;;;;;;;;;;;;;17.26;45.67;101514.72;4998263;28;1149;-56
2023/03/02 00:30:05;;;;;;;;;;;;;;;16.42;46.80;101510.44;4998495;28;1191;-56
2023/03/02 00:32:31;;;;;;;;;;;;;;;16.16;46.35;101512.00;4998604;28;1064;-56
2023/03/02 00:34:57;;;;;;;;;;;;;;;16.00;45.89;101491.75;4998316;28;1127;-55
2023/03/02 00:37:24;;;;;;;;;;;;;;;16.85;46.05;101480.47;4998626;28;1273;-56
2023/03/02 00:39:52;;;;;;;;;;;;;;;16.53;47.14;101489.44;4998272;28;1148;-55
2023/03/02 00:42:18;;;;;;;;;;;;;;;18.29;43.60;101489.91;4997875;28;1985;-55
2023/03/02 00:44:44;;;;;;;;;;;;;;;17.22;45.65;101494.34;4980772;28;1618;-56
2023/03/02 00:47:09;;;;;;;;;;;;;;;16.54;46.33;101491.09;4998560;28;1143;-55
2023/03/02 00:49:35;;;;;;;;;;;;;;;16.19;46.80;101484.88;4998392;28;1127;-55
2023/03/02 00:52:01;;;;;;;;;;;;;;;17.13;45.88;101484.09;5013303;28;1199;-56
2023/03/02 00:54:27;;;;;;;;;;;;;;;16.25;46.61;101489.34;4998140;28;923;-56
2023/03/02 00:56:52;;;;;;;;;;;;;;;18.06;44.22;101483.75;4998035;28;1224;-57
2023/03/02 00:59:25;;;;;;;;;;;;;;;17.00;46.23;101472.44;4996785;28;1099;-55
2023/03/02 01:01:59;;;;;;;;;;;;;;;16.34;46.54;101476.03;5013388;28;1914;-56
2023/03/02 01:04:29;;;;;;;;;;;;;;;16.23;46.23;101466.03;4980392;28;1092;-55
2023/03/02 01:07:11;;;;;;;;;;;;;;;16.77;46.45;101466.13;4998431;28;1203;-54
2023/03/02 01:09:37;;;;;;;;;;;;;;;16.60;46.55;101463.44;4980382;28;1068;-54
2023/03/02 01:12:04;;;;;;;;;;;;;;;16.19;46.51;101464.88;4997423;28;1196;-53
2023/03/02 01:14:30;;;;;;;;;;;;;;;17.28;45.72;101465.81;4997723;28;1032;-55
2023/03/02 01:16:55;;;;;;;;;;;;;;;16.44;46.85;101464.38;4997600;28;1211;-56
2023/03/02 01:19:21;;;;;;;;;;;;;;;16.22;46.25;101473.41;4997787;28;1144;-56
2023/03/02 01:21:47;;;;;;;;;;;;;;;17.08;45.77;101466.47;4997429;28;1914;-56
2023/03/02 01:24:12;;;;;;;;;;;;;;;16.28;46.87;101460.56;4997451;28;1080;-56
2023/03/02 01:26:38;;;;;;;;;;;;;;;16.05;46.37;101457.00;4997544;28;1111;-56
2023/03/02 01:29:03;;;;;;;;;;;;;;;17.52;45.02;101439.91;4997492;28;1223;-57
2023/03/02 01:31:29;;;;;;;;;;;;;;;16.40;46.66;101447.56;4997593;28;1057;-56
2023/03/02 01:33:54;;;;;;;;;;;;;;;18.21;43.58;101443.63;4997220;28;1179;-56
2023/03/02 01:36:20;;;;;;;;;;;;;;;17.69;44.56;101456.22;4997625;28;1117;-56
2023/03/02 01:38:46;;;;;;;;;;;;;;;16.72;46.33;101457.00;5012694;28;1113;-57
2023/03/02 01:41:11;;;;;;;;;;;;;;;16.38;46.12;101457.13;4997011;28;1906;-56
2023/03/02 01:43:37;;;;;;;;;;;;;;;16.55;46.31;101454.31;5009199;28;1257;-56
2023/03/02 01:46:13;;;;;;;;;;;;;;;16.83;46.50;101455.16;4978048;28;1013;-57
2023/03/02 01:48:46;;;;;;;;;;;;;;;16.36;46.17;101457.38;5009365;28;1170;-56
2023/03/02 01:51:15;;;;;;;;;;;;;;;17.33;45.55;101459.53;4976759;28;1312;-57
2023/03/02 01:53:45;;;;;;;;;;;;;;;16.49;46.66;101464.41;5008815;28;1148;-56
2023/03/02 01:56:12;;;;;;;;;;;;;;;16.20;47.16;101467.34;4976781;28;1371;-57
2023/03/02 01:58:38;;;;;;;;;;;;;;;16.96;45.85;101465.78;4992824;28;1184;-57
2023/03/02 02:01:03;;;;;;;;;;;;;;;16.31;46.50;101462.81;4992516;28;1973;-56
2023/03/02 02:03:29;;;;;;;;;;;;;;;17.51;45.22;101476.72;4977951;28;1013;-57
2023/03/02 02:06:00;;;;;;;;;;;;;;;16.59;46.48;101466.44;5008423;28;1291;-56
2023/03/02 02:08:26;;;;;;;;;;;;;;;16.23;46.70;101463.28;4992315;28;1221;-57
2023/03/02 02:10:52;;;;;;;;;;;;;;;16.04;46.29;101463.56;4977824;28;1236;-56
2023/03/02 02:13:17;;;;;;;;;;;;;;;17.32;45.39;101457.88;4992499;28;1331;-56
2023/03/02 02:15:43;;;;;;;;;;;;;;;16.41;46.68;101453.88;4977777;28;1098;-57
2023/03/02 02:18:09;;;;;;;;;;;;;;;16.07;46.55;101454.84;4992224;28;1107;-56
2023/03/02 02:20:35;;;;;;;;;;;;;;;16.69;46.55;101452.00;4977165;28;1973;-57
2023/03/02 02:23:13;;;;;;;;;;;;;;;16.21;46.57;101448.97;4977804;28;1088;-57
2023/03/02 02:25:43;;;;;;;;;;;;;;;16.96;46.22;101457.53;4968700;28;1098;-57
2023/03/02 02:28:29;;;;;;;;;;;;;;;16.46;46.82;101450.38;5012699;28;1155;-57
2023/03/02 02:31:17;;;;;;;;;;;;;;;17.45;45.38;101453.84;4979913;28;1178;-55
2023/03/02 02:33:45;;;;;;;;;;;;;;;17.25;45.56;101457.25;4979685;28;1155;-55
2023/03/02 02:36:14;;;;;;;;;;;;;;;16.54;46.20;101458.97;4981144;28;1049;-56
2023/03/02 02:38:39;;;;;;;;;;;;;;;17.45;45.37;101457.44;5012806;28;1152;-56
2023/03/02 02:41:07;;;;;;;;;;;;;;;16.90;46.09;101444.84;5011713;28;1919;-56
2023/03/02 02:43:33;;;;;;;;;;;;;;;16.41;46.26;101454.72;4998335;28;1441;-56
2023/03/02 02:45:59;;;;;;;;;;;;;;;16.22;45.80;101451.44;5000659;28;1088;-55
2023/03/02 02:48:25;;;;;;;;;;;;;;;16.99;46.01;101447.97;5015853;28;1120;-56
2023/03/02 02:50:58;;;;;;;;;;;;;;;16.66;46.31;101444.28;4999136;28;1316;-52
2023/03/02 02:53:36;;;;;;;;;;;;;;;16.25;46.69;101444.63;5000686;28;1119;-50
2023/03/02 02:56:02;;;;;;;;;;;;;;;15.93;46.29;101437.06;5000535;28;1083;-57
2023/03/02 02:58:47;;;;;;;;;;;;;;;15.90;45.66;101451.28;5015616;28;1255;-57
2023/03/02 03:01:13;;;;;;;;;;;;;;;17.06;45.37;101446.66;4982583;28;1902;-57
2023/03/02 03:03:39;;;;;;;;;;;;;;;16.10;46.94;101448.00;5000013;28;1088;-57
2023/03/02 03:06:10;;;;;;;;;;;;;;;17.13;45.77;101445.63;4982671;28;1400;-57
2023/03/02 03:08:42;;;;;;;;;;;;;;;16.73;46.25;101440.25;4998339;28;1112;-57
2023/03/02 03:11:10;;;;;;;;;;;;;;;16.11;46.96;101438.69;4982471;28;1237;-57
2023/03/02 03:13:36;;;;;;;;;;;;;;;16.24;47.30;101442.97;5015179;28;1076;-57
2023/03/02 03:16:02;;;;;;;;;;;;;;;16.80;46.21;101433.72;5015021;28;1421;-57
2023/03/02 03:18:30;;;;;;;;;;;;;;;16.14;46.83;101440.91;4999716;28;1056;-57
2023/03/02 03:20:56;;;;;;;;;;;;;;;17.36;45.35;101434.28;5015284;28;1906;-57
2023/03/02 03:23:22;;;;;;;;;;;;;;;16.44;46.80;101442.41;4982537;28;1313;-57
2023/03/02 03:25:47;;;;;;;;;;;;;;;16.40;47.28;101441.25;4982554;28;1151;-57
2023/03/02 03:28:13;;;;;;;;;;;;;;;17.15;45.46;101447.00;4999403;28;1095;-57
2023/03/02 03:30:39;;;;;;;;;;;;;;;16.30;46.94;101447.44;5014475;28;862;-57
2023/03/02 03:33:05;;;;;;;;;;;;;;;16.20;47.34;101453.63;5014938;28;1636;-57
2023/03/02 03:35:30;;;;;;;;;;;;;;;16.97;45.81;101447.38;4998033;28;1123;-57
2023/03/02 03:37:56;;;;;;;;;;;;;;;16.34;46.71;101451.34;5014493;28;1238;-52
2023/03/02 03:40:22;;;;;;;;;;;;;;;16.00;46.34;101453.34;4981946;28;1964;-54
2023/03/02 03:42:48;;;;;;;;;;;;;;;16.70;46.18;101457.22;5014556;28;1320;-53
2023/03/02 03:45:13;;;;;;;;;;;;;;;16.56;46.45;101458.72;5014751;28;1485;-54
2023/03/02 03:47:41;;;;;;;;;;;;;;;16.13;46.64;101463.13;5014706;28;1415;-53
2023/03/02 03:50:09;;;;;;;;;;;;;;;16.36;46.93;101471.13;5014725;28;1162;-54
2023/03/02 03:52:35;;;;;;;;;;;;;;;16.76;45.98;101467.19;4981750;28;1449;-56
2023/03/02 03:55:08;;;;;;;;;;;;;;;16.68;46.91;101478.63;5014092;28;1127;-55
2023/03/02 03:57:33;;;;;;;;;;;;;;;18.42;42.71;101486.66;5014537;28;1127;-55
2023/03/02 03:59:59;;;;;;;;;;;;;;;16.75;46.12;101489.44;5014499;28;1387;-56
2023/03/02 04:02:25;;;;;;;;;;;;;;;16.54;46.59;101497.41;5014411;28;1989;-56
2023/03/02 04:04:51;;;;;;;;;;;;;;;17.38;44.86;101489.00;5014099;28;1439;-56
2023/03/02 04:07:18;;;;;;;;;;;;;;;16.43;46.35;101493.72;5013956;28;1122;-56
2023/03/02 04:09:44;;;;;;;;;;;;;;;17.24;45.34;101488.59;5013863;28;1595;-55
2023/03/02 04:12:12;;;;;;;;;;;;;;;16.75;46.11;101493.00;5014076;28;1127;-53
2023/03/02 04:14:41;;;;;;;;;;;;;;;16.34;46.29;101486.16;5014113;28;1172;-50
2023/03/02 04:17:07;;;;;;;;;;;;;;;16.10;45.83;101493.81;5014141;28;1191;-57
2023/03/02 04:19:37;;;;;;;;;;;;;;;16.88;45.75;101486.28;5013833;28;1304;-54
2023/03/02 04:22:03;;;;;;;;;;;;;;;16.63;46.09;101495.03;5014197;28;1914;-54
2023/03/02 04:24:30;;;;;;;;;;;;;;;16.19;46.24;101493.13;5014129;28;1320;-54
2023/03/02 04:26:58;;;;;;;;;;;;;;;16.14;46.61;101487.56;5014023;28;1209;-55
2023/03/02 04:29:24;;;;;;;;;;;;;;;16.89;45.74;101492.63;5013798;28;1170;-55
2023/03/02 04:31:50;;;;;;;;;;;;;;;16.31;46.22;101492.19;5013188;28;1431;-56
2023/03/02 04:34:17;;;;;;;;;;;;;;;16.38;46.60;101498.31;4998848;28;1129;-57
2023/03/02 04:36:44;;;;;;;;;;;;;;;16.58;46.41;101497.75;5013886;28;1165;-52
2023/03/02 04:39:12;;;;;;;;;;;;;;;16.07;47.16;101489.66;4980828;28;1153;-56
2023/03/02 04:41:38;;;;;;;;;;;;;;;17.92;43.73;101501.78;4980298;28;1902;-53
2023/03/02 04:44:04;;;;;;;;;;;;;;;16.57;46.22;101502.41;4998350;28;1061;-52
2023/03/02 04:46:30;;;;;;;;;;;;;;;16.07;46.41;101506.97;4997778;28;1152;-55
2023/03/02 04:48:55;;;;;;;;;;;;;;;16.74;46.06;101509.72;4998154;28;1060;-51
2023/03/02 04:51:22;;;;;;;;;;;;;;;16.53;46.50;101505.91;4997982;28;1136;-60
2023/03/02 04:53:52;;;;;;;;;;;;;;;16.10;46.62;101504.78;4979950;28;1088;-56
2023/03/02 04:56:17;;;;;;;;;;;;;;;17.36;44.78;101513.16;4998017;28;1199;-60
2023/03/02 04:58:43;;;;;;;;;;;;;;;16.28;46.67;101512.72;4998016;28;1203;-59
2023/03/02 05:01:09;;;;;;;;;;;;;;;17.20;45.32;101509.44;4997961;28;1898;-53
2023/03/02 05:03:34;;;;;;;;;;;;;;;16.85;45.88;101514.25;4998001;28;1164;-52
2023/03/02 05:06:02;;;;;;;;;;;;;;;16.25;46.72;101513.22;4998084;28;1045;-57
2023/03/02 05:08:28;;;;;;;;;;;;;;;16.46;46.40;101521.75;4997926;28;854;-56
2023/03/02 05:10:53;;;;;;;;;;;;;;;16.69;46.13;101516.00;4997781;28;1084;-54
2023/03/02 05:13:19;;;;;;;;;;;;;;;16.14;46.62;101525.16;4997642;28;1033;-55
2023/03/02 05:15:45;;;;;;;;;;;;;;;17.66;44.18;101522.78;4997302;28;1056;-56
2023/03/02 05:18:10;;;;;;;;;;;;;;;16.43;46.31;101523.09;4997912;28;1048;-56
2023/03/02 05:20:36;;;;;;;;;;;;;;;16.17;46.40;101524.63;4997436;28;1905;-56
2023/03/02 05:23:05;;;;;;;;;;;;;;;15.95;45.91;101524.59;4997906;28;1145;-56
2023/03/02 05:25:31;;;;;;;;;;;;;;;16.69;45.97;101535.22;4997554;28;1164;-56
2023/03/02 05:27:57;;;;;;;;;;;;;;;16.82;45.99;101530.44;4997774;28;1025;-56
2023/03/02 05:30:23;;;;;;;;;;;;;;;18.43;42.53;101526.88;4997259;28;925;-57
2023/03/02 05:32:48;;;;;;;;;;;;;;;17.21;45.12;101524.84;4997191;28;895;-57
2023/03/02 05:35:14;;;;;;;;;;;;;;;16.50;46.20;101528.41;4997510;28;1136;-56
2023/03/02 05:37:43;;;;;;;;;;;;;;;17.38;45.31;101522.81;4997698;28;1032;-56
2023/03/02 05:40:14;;;;;;;;;;;;;;;17.10;45.39;101516.47;4997140;28;1123;-57
2023/03/02 05:42:40;;;;;;;;;;;;;;;16.40;46.47;101524.41;5012207;28;1122;-56
2023/03/02 05:45:06;;;;;;;;;;;;;;;16.17;45.91;101535.63;4997274;28;1203;-56
2023/03/02 05:47:31;;;;;;;;;;;;;;;17.33;44.80;101531.00;4997398;28;1064;-57
2023/03/02 05:49:58;;;;;;;;;;;;;;;16.60;46.04;101532.06;4997440;28;1314;-56
2023/03/02 05:52:23;;;;;;;;;;;;;;;16.57;46.41;101537.28;4997311;28;1135;-56
2023/03/02 05:54:49;;;;;;;;;;;;;;;17.17;45.36;101538.25;4997053;28;1133;-55
2023/03/02 05:57:15;;;;;;;;;;;;;;;16.43;46.35;101540.38;4997250;28;1076;-56
2023/03/02 05:59:40;;;;;;;;;;;;;;;17.99;43.77;101548.34;4996542;28;1105;-53
2023/03/02 06:02:06;;;;;;;;;;;;;;;16.90;45.54;101557.47;4997015;28;1975;-52
2023/03/02 06:04:31;;;;;;;;;;;;;;;16.46;46.07;101550.03;4997261;28;1233;-55
2023/03/02 06:06:57;;;;;;;;;;;;;;;16.93;45.77;101552.28;4996563;28;1177;-54
2023/03/02 06:09:22;;;;;;;;;;;;;;;16.61;46.07;101557.63;4996931;28;1028;-56
2023/03/02 06:11:48;;;;;;;;;;;;;;;17.20;45.29;101554.22;4996797;28;1167;-55
2023/03/02 06:14:13;;;;;;;;;;;;;;;18.50;42.49;101562.44;4996870;28;1306;-54
2023/03/02 06:16:39;;;;;;;;;;;;;;;17.71;43.73;101564.91;4996653;28;1176;-56
2023/03/02 06:19:05;;;;;;;;;;;;;;;17.08;45.45;101557.16;4996726;28;1167;-56
2023/03/02 06:21:30;;;;;;;;;;;;;;;16.73;46.25;101561.09;4997001;28;1906;-55
2023/03/02 06:23:56;;;;;;;;;;;;;;;16.50;46.55;101561.34;4996506;28;1101;-54
2023/03/02 06:26:21;;;;;;;;;;;;;;;16.30;46.94;101561.88;4996934;28;1203;-50
2023/03/02 06:28:47;;;;;;;;;;;;;;;16.09;47.65;101561.59;4996856;28;1190;-51
2023/03/02 06:31:12;;;;;;;;;;;;;;;15.97;47.53;101564.41;4996335;28;1056;-54
2023/03/02 06:33:38;;;;;;;;;;;;;;;15.82;47.81;101567.75;4996421;28;1468;-49
2023/03/02 06:36:04;;;;;;;;;;;;;;;15.69;48.12;101568.84;5012116;28;1103;-53
2023/03/02 06:38:29;;;;;;;;;;;;;;;15.59;48.20;101570.59;4996400;28;1216;-48
2023/03/02 06:40:55;;;;;;;;;;;;;;;15.46;48.52;101568.97;4996870;28;1898;-49
2023/03/02 06:43:20;;;;;;;;;;;;;;;15.33;49.00;101581.09;4996178;28;1109;-46
2023/03/02 06:45:46;;;;;;;;;;;;;;;16.70;45.87;101589.03;4996509;28;1068;-51
2023/03/02 06:48:11;;;;;;;;;;;;;;;17.05;44.52;101578.78;4984587;28;1001;-48
2023/03/02 06:50:37;;;;;;;;;;;;;;;16.12;46.71;101582.16;4996549;28;1223;-50
2023/03/02 06:53:03;;;;;;;;;;;;;;;15.80;47.91;101582.78;4996226;28;1065;-57
2023/03/02 06:55:30;;;;;;;;;;;;;;;15.63;48.29;101583.56;5010845;28;1227;-54
2023/03/02 06:57:55;;;;;;;;;;;;;;;15.51;48.44;101591.00;4996178;28;1263;-54
2023/03/02 07:00:26;;;;;;;;;;;;;;;16.83;45.32;101593.34;4996074;28;1998;-56
2023/03/02 07:02:51;;;;;;;;;;;;;;;17.16;44.20;101590.75;4995699;28;1231;-54
2023/03/02 07:05:17;;;;;;;;;;;;;;;16.28;46.44;101592.31;4995960;28;1207;-56
2023/03/02 07:07:43;;;;;;;;;;;;;;;15.95;47.37;101584.94;4995789;28;1258;-48
2023/03/02 07:10:10;;;;;;;;;;;;;;;15.76;47.82;101584.31;4997983;28;1258;-49
2023/03/02 07:12:36;;;;;;;;;;;;;;;15.65;47.95;101584.13;5000541;28;1124;-49
2023/03/02 07:15:02;;;;;;;;;;;;;;;17.15;44.52;101594.56;4999720;28;1188;-55
2023/03/02 07:17:28;;;;;;;;;;;;;;;17.36;43.81;101581.88;4999690;28;1140;-54
2023/03/02 07:19:53;;;;;;;;;;;;;;;16.47;45.85;101581.06;4999572;28;1227;-54
2023/03/02 07:22:19;;;;;;;;;;;;;;;16.05;46.70;101583.19;4999687;28;1989;-53
2023/03/02 07:24:44;;;;;;;;;;;;;;;15.85;47.40;101589.19;4999814;28;1135;-51
2023/03/02 07:27:10;;;;;;;;;;;;;;;15.64;47.82;101579.75;4999770;28;1228;-49
2023/03/02 07:29:36;;;;;;;;;;;;;;;15.49;48.24;101582.22;4999604;28;1135;-54
2023/03/02 07:32:01;;;;;;;;;;;;;;;16.88;45.07;101581.59;4999443;28;1279;-55
2023/03/02 07:34:27;;;;;;;;;;;;;;;17.32;43.76;101578.84;4999573;28;1115;-52
2023/03/02 07:36:53;;;;;;;;;;;;;;;16.34;46.26;101585.81;4999310;28;990;-53
2023/03/02 07:39:18;;;;;;;;;;;;;;;15.95;47.20;101587.66;4999220;28;1220;-55
2023/03/02 07:41:44;;;;;;;;;;;;;;;15.67;47.70;101582.00;4998990;28;1914;-53
2023/03/02 07:44:12;;;;;;;;;;;;;;;15.53;48.00;101577.91;5013913;28;1350;-54
2023/03/02 07:46:37;;;;;;;;;;;;;;;16.60;45.63;101583.44;4999662;28;1071;-48
2023/03/02 07:49:03;;;;;;;;;;;;;;;17.34;43.61;101570.31;4999220;28;1124;-53
2023/03/02 07:51:28;;;;;;;;;;;;;;;16.37;46.12;101579.00;4999452;28;1139;-53
2023/03/02 07:53:54;;;;;;;;;;;;;;;15.93;46.91;101578.88;4999181;28;1057;-52
2023/03/02 07:56:20;;;;;;;;;;;;;;;15.71;47.52;101574.09;4998987;28;1243;-54
2023/03/02 07:58:45;;;;;;;;;;;;;;;15.60;48.06;101573.09;4998896;28;1183;-53
2023/03/02 08:01:11;;;;;;;;;;;;;;;17.21;44.22;101566.91;4999372;28;1977;-51
2023/03/02 08:03:36;;;;;;;;;;;;;;;16.84;44.66;101574.94;4998757;28;1143;-52
2023/03/02 08:06:06;;;;;;;;;;;;;;;16.17;46.26;101568.53;4986289;28;1180;-48
2023/03/02 08:08:31;;;;;;;;;;;;;;;15.85;46.97;101572.72;4998613;28;1060;-52
2023/03/02 08:11:04;;;;;;;;;;;;;;;15.64;47.58;101579.75;4998803;28;1204;-54
2023/03/02 08:13:30;;;;;;;;;;;;;;;15.93;47.10;101576.13;4997177;28;1271;-52
2023/03/02 08:16:00;;;;;;;;;;;;;;;17.41;43.76;101582.75;4998546;28;1021;-54
2023/03/02 08:18:25;;;;;;;;;;;;;;;16.69;44.89;101581.91;4998633;28;1187;-53
2023/03/02 08:20:52;;;;;;;;;;;;;;;16.08;46.53;101582.69;4997453;28;1894;-49
2023/03/02 08:23:18;;;;;;;;;;;;;;;15.80;47.29;101580.03;4998277;28;1040;-51
2023/03/02 08:25:43;;;;;;;;;;;;;;;15.58;47.82;101583.47;4998414;28;1107;-52
2023/03/02 08:28:09;;;;;;;;;;;;;;;15.61;47.95;101590.38;4998602;28;1033;-51
2023/03/02 08:30:34;;;;;;;;;;;;;;;17.23;44.07;101583.13;4998191;28;1161;-53
2023/03/02 08:33:00;;;;;;;;;;;;;;;17.09;44.09;101583.50;4998290;28;1176;-53
2023/03/02 08:35:26;;;;;;;;;;;;;;;16.24;46.21;101583.75;4998597;28;1140;-52
2023/03/02 08:37:51;;;;;;;;;;;;;;;15.90;46.94;101580.19;4998025;28;1178;-53
2023/03/02 08:40:17;;;;;;;;;;;;;;;15.70;47.33;101576.00;4998122;28;1069;-53
2023/03/02 08:42:42;;;;;;;;;;;;;;;17.21;44.02;101579.81;4997730;28;1987;-56
2023/03/02 08:45:08;;;;;;;;;;;;;;;16.92;44.46;101585.53;4997755;28;1211;-51
2023/03/02 08:47:34;;;;;;;;;;;;;;;16.17;46.19;101585.84;4997662;28;1846;-53
2023/03/02 08:49:59;;;;;;;;;;;;;;;15.87;47.03;101588.94;4997950;28;1077;-53
2023/03/02 08:52:25;;;;;;;;;;;;;;;15.70;47.67;101584.22;4998132;28;1100;-53
2023/03/02 08:54:50;;;;;;;;;;;;;;;16.08;46.89;101576.38;4998010;28;1088;-50
2023/03/02 08:57:16;;;;;;;;;;;;;;;17.53;43.42;101579.88;5000620;28;1087;-51
2023/03/02 08:59:41;;;;;;;;;;;;;;;16.60;45.36;101575.19;4997232;28;1080;-52
2023/03/02 09:02:09;;;;;;;;;;;;;;;16.10;46.62;101584.34;4997859;28;1922;-53
2023/03/02 09:04:34;;;;;;;;;;;;;;;15.80;47.32;101585.53;4997645;28;1024;-52
2023/03/02 09:07:00;;;;;;;;;;;;;;;15.57;47.90;101573.56;4997782;28;1132;-52
2023/03/02 09:09:25;;;;;;;;;;;;;;;15.45;47.98;101583.78;4997606;28;886;-54
2023/03/02 09:11:51;;;;;;;;;;;;;;;17.02;44.22;101585.63;4995071;28;1603;-52
2023/03/02 09:14:17;;;;;;;;;;;;;;;17.16;43.85;101580.56;4997281;28;985;-55
2023/03/02 09:16:44;;;;;;;;;;;;;;;16.03;46.67;101573.53;4997448;28;1410;-53
2023/03/02 09:19:10;;;;;;;;;;;;;;;15.51;47.40;101577.31;5012687;28;1195;-55
2023/03/02 09:21:36;;;;;;;;;;;;;;;17.04;44.58;101571.63;5014082;28;1993;-51
2023/03/02 09:24:01;;;;;;;;;;;;;;;15.92;46.56;101567.06;4997239;28;1053;-52
2023/03/02 09:26:27;;;;;;;;;;;;;;;17.19;44.31;101569.06;4997129;28;1096;-47
2023/03/02 09:28:53;;;;;;;;;;;;;;;17.22;43.71;101568.56;4997536;28;1223;-48
2023/03/02 09:31:18;;;;;;;;;;;;;;;16.18;46.12;101570.22;4997279;28;1156;-47
2023/03/02 09:33:44;;;;;;;;;;;;;;;17.20;44.09;101559.72;4996955;28;1123;-48
2023/03/02 09:36:12;;;;;;;;;;;;;;;16.49;45.48;101555.00;4997344;28;1061;-48
2023/03/02 09:38:38;;;;;;;;;;;;;;;15.91;46.20;101560.75;4997395;28;1069;-51
2023/03/02 09:41:19;;;;;;;;;;;;;;;17.26;44.33;101557.88;4997109;28;1918;-49
2023/03/02 09:43:53;;;;;;;;;;;;;;;16.15;46.33;101555.06;4997218;28;1135;-52
2023/03/02 09:46:26;;;;;;;;;;;;;;;17.39;43.79;101557.47;4996957;28;851;-47
2023/03/02 09:49:06;;;;;;;;;;;;;;;17.00;44.71;101554.84;4996743;28;1056;-49
2023/03/02 09:51:32;;;;;;;;;;;;;;;16.15;46.03;101548.78;4997067;28;1212;-49
2023/03/02 09:54:11;;;;;;;;;;;;;;;17.55;42.98;101543.84;4994074;28;1523;-49
2023/03/02 09:56:38;;;;;;;;;;;;;;;17.48;43.51;101541.31;5011483;28;1227;-54
2023/03/02 09:59:10;;;;;;;;;;;;;;;16.62;45.67;101542.84;4996936;28;1136;-50
2023/03/02 10:01:37;;;;;;;;;;;;;;;17.78;43.43;101543.50;5011844;28;1914;-55
2023/03/02 10:04:23;;;;;;;;;;;;;;;16.89;45.25;101525.59;5015681;28;943;-54
2023/03/02 10:06:50;;;;;;;;;;;;;;;17.60;43.74;101530.16;4996715;28;1679;-49
2023/03/02 10:09:16;;;;;;;;;;;;;;;17.72;43.37;101519.78;4996638;28;1037;-54
2023/03/02 10:11:47;;;;;;;;;;;;;;;16.65;45.30;101525.84;4996185;28;1088;-54
2023/03/02 10:14:23;;;;;;;;;;;;;;;18.65;41.41;101528.63;5011747;28;1152;-54
2023/03/02 10:17:08;;;;;;;;;;;;;;;17.27;44.18;101516.38;5011637;28;1136;-54
2023/03/02 10:19:42;;;;;;;;;;;;;;;16.68;45.36;101514.34;5011901;28;1123;-53
2023/03/02 10:22:11;;;;;;;;;;;;;;;18.04;42.65;101507.94;5011421;28;1906;-54
2023/03/02 10:24:37;;;;;;;;;;;;;;;16.97;44.84;101505.91;4996434;28;1150;-55
2023/03/02 10:27:16;;;;;;;;;;;;;;;18.36;42.25;101512.53;5011704;28;1098;-50
2023/03/02 10:30:02;;;;;;;;;;;;;;;17.70;43.58;101516.47;4996793;28;1187;-48
2023/03/02 10:32:37;;;;;;;;;;;;;;;16.93;45.10;101516.56;4996545;28;962;-49
2023/03/02 10:35:16;;;;;;;;;;;;;;;18.33;42.29;101521.31;5011129;28;930;-51
2023/03/02 10:37:42;;;;;;;;;;;;;;;17.05;44.73;101510.91;4996723;28;1208;-52
2023/03/02 10:40:11;;;;;;;;;;;;;;;17.43;44.52;101509.09;4996355;28;1041;-55
2023/03/02 10:42:36;;;;;;;;;;;;;;;17.68;43.51;101515.91;5011458;28;1985;-53
2023/03/02 10:45:05;;;;;;;;;;;;;;;16.91;45.00;101506.94;5012757;28;1285;-52
2023/03/02 10:47:30;;;;;;;;;;;;;;;18.57;41.72;101501.59;5000723;28;1211;-54
2023/03/02 10:49:56;;;;;;;;;;;;;;;17.27;44.43;101505.38;5000088;28;1104;-55
2023/03/02 10:52:26;;;;;;;;;;;;;;;16.70;45.28;101492.94;5000449;28;1127;-55
2023/03/02 10:55:01;;;;;;;;;;;;;;;18.02;42.63;101490.88;5000067;28;1103;-53
2023/03/02 10:57:27;;;;;;;;;;;;;;;16.92;44.99;101481.94;4999748;28;1065;-55
2023/03/02 10:59:52;;;;;;;;;;;;;;;18.78;41.48;101486.78;5000483;28;1231;-55
2023/03/02 11:02:21;;;;;;;;;;;;;;;17.86;43.13;101481.66;5014923;28;1910;-55
2023/03/02 11:04:48;;;;;;;;;;;;;;;17.20;44.81;101481.97;4999680;28;1053;-53
2023/03/02 11:07:17;;;;;;;;;;;;;;;18.69;41.45;101474.66;5015028;28;1150;-51
2023/03/02 11:10:03;;;;;;;;;;;;;;;17.31;44.23;101471.88;4999601;28;1076;-55
2023/03/02 11:12:28;;;;;;;;;;;;;;;16.97;45.01;101470.19;4999550;28;1239;-51
2023/03/02 11:15:20;;;;;;;;;;;;;;;17.82;43.24;101464.00;5014989;28;1068;-51
2023/03/02 11:18:09;;;;;;;;;;;;;;;16.92;44.93;101459.16;4998694;28;1439;-51
2023/03/02 11:20:36;;;;;;;;;;;;;;;18.13;42.74;101462.31;4996996;28;1910;-45
2023/03/02 11:23:21;;;;;;;;;;;;;;;17.01;45.06;101457.59;5014236;28;904;-49
2023/03/02 11:25:54;;;;;;;;;;;;;;;18.85;41.32;101456.22;4999868;28;1207;-51
2023/03/02 11:28:19;;;;;;;;;;;;;;;17.92;42.98;101450.38;4999856;28;1044;-45
2023/03/02 11:30:45;;;;;;;;;;;;;;;17.09;44.77;101446.13;4999161;28;1175;-46
2023/03/02 11:33:16;;;;;;;;;;;;;;;17.12;44.90;101446.69;4999836;28;1080;-47
2023/03/02 11:35:43;;;;;;;;;;;;;;;17.49;44.09;101448.66;5014529;28;863;-49
2023/03/02 11:38:32;;;;;;;;;;;;;;;16.88;45.10;101455.22;5014746;28;1076;-49
2023/03/02 11:41:02;;;;;;;;;;;;;;;18.18;42.58;101446.91;4996207;28;1906;-50
2023/03/02 11:43:28;;;;;;;;;;;;;;;17.02;44.91;101451.00;5014056;28;1123;-45
2023/03/02 11:46:03;;;;;;;;;;;;;;;18.65;41.79;101457.00;4999273;28;1029;-52
2023/03/02 11:48:30;;;;;;;;;;;;;;;18.01;42.72;101447.94;5014692;28;1060;-49
2023/03/02 11:50:59;;;;;;;;;;;;;;;17.23;44.53;101445.69;5014509;28;1052;-50
2023/03/02 11:53:57;;;;;;;;;;;;;;;17.96;43.51;101445.13;4999200;28;997;-47
2023/03/02 11:56:22;;;;;;;;;;;;;;;17.23;44.77;101440.19;4985719;28;1287;-47
2023/03/02 11:58:51;;;;;;;;;;;;;;;16.92;44.88;101445.41;4998881;28;990;-48
2023/03/02 12:01:18;;;;;;;;;;;;;;;17.87;43.07;101435.72;5013889;28;1902;-48
2023/03/02 12:03:44;;;;;;;;;;;;;;;16.97;45.06;101433.63;5014150;28;1203;-50
2023/03/02 12:06:13;;;;;;;;;;;;;;;18.12;43.05;101432.31;4999252;28;1160;-52
2023/03/02 12:08:39;;;;;;;;;;;;;;;17.39;44.19;101439.25;5014103;28;1143;-49
2023/03/02 12:11:28;;;;;;;;;;;;;;;16.95;44.74;101441.31;4998357;28;1188;-49
2023/03/02 12:13:53;;;;;;;;;;;;;;;17.84;43.50;101431.56;4996072;28;1948;-50
2023/03/02 12:16:20;;;;;;;;;;;;;;;17.05;45.07;101434.00;4998323;28;1072;-53
2023/03/02 12:18:46;;;;;;;;;;;;;;;19.12;40.81;101442.22;4998564;28;1322;-54
2023/03/02 12:21:15;;;;;;;;;;;;;;;17.75;43.56;101434.00;4998302;28;1898;-48
2023/03/02 12:23:52;;;;;;;;;;;;;;;17.21;44.49;101425.91;4998493;28;910;-50
2023/03/02 12:26:18;;;;;;;;;;;;;;;18.21;43.02;101435.38;4986265;28;1124;-53
2023/03/02 12:28:53;;;;;;;;;;;;;;;17.43;44.38;101437.63;4998200;28;1052;-50
2023/03/02 12:31:19;;;;;;;;;;;;;;;16.86;44.83;101449.19;4998251;28;1211;-48
2023/03/02 12:33:48;;;;;;;;;;;;;;;17.61;43.93;101441.88;4998698;28;1052;-49
2023/03/02 12:36:15;;;;;;;;;;;;;;;17.10;45.28;101436.78;4988406;28;990;-49
2023/03/02 12:38:44;;;;;;;;;;;;;;;19.14;40.80;101440.03;5012952;28;1072;-46
2023/03/02 12:41:12;;;;;;;;;;;;;;;17.90;43.29;101435.19;5012890;28;1980;-53
2023/03/02 12:43:56;;;;;;;;;;;;;;;17.16;44.47;101431.34;4998171;28;1200;-49
2023/03/02 12:46:32;;;;;;;;;;;;;;;17.24;44.91;101439.13;4998061;28;1135;-46
2023/03/02 12:49:06;;;;;;;;;;;;;;;17.89;43.34;101433.50;4986178;28;1140;-49
2023/03/02 12:52:01;;;;;;;;;;;;;;;17.02;44.84;101439.19;4998038;28;1152;-46